WetterOnline ( https://www.wetteronline.de )

Wetter aktuell Brünn

Aktuelles Wetter: Brünn - Turany (246m)

6-stündlich | Neueste Meldungen
Ortszeit Temperatur Wetter
So, 08.12. 13:00 10.4° C leicht bewölkt
So, 08.12. 7:00 2.8° C bewölkt
So, 08.12. 1:00 2.8° C leicht bewölkt
Sa, 07.12. 19:00 0.6° C leicht bewölkt
Sa, 07.12. 13:00 1.4° C bedeckt
Sa, 07.12. 7:00 -1.0° C Eiskörner
Sa, 07.12. 1:00 -1.4° C bedeckt
Fr, 06.12. 19:00 -0.8° C bedeckt
Ortszeit Temperatur Wetter
So, 08.12. 16:00 5.6° C leicht bewölkt
So, 08.12. 15:30 7° C -
So, 08.12. 15:00 8.6° C leicht bewölkt
So, 08.12. 14:30 10° C -
So, 08.12. 14:00 10.2° C leicht bewölkt
So, 08.12. 13:30 11° C leicht bewölkt
So, 08.12. 13:00 10.4° C leicht bewölkt
So, 08.12. 12:30 10° C leicht bewölkt
Ortszeit Relative Feuchte Sichtweite
So, 08.12. 13:00 63% 45 km
So, 08.12. 7:00 93% 35 km
So, 08.12. 1:00 91% 10 km
Sa, 07.12. 19:00 97% 6 km
Sa, 07.12. 13:00 95% 5.0 km
Sa, 07.12. 7:00 98% 1.5 km
Sa, 07.12. 1:00 96% 3.0 km
Fr, 06.12. 19:00 91% 9 km
Ortszeit Relative Feuchte Sichtweite
So, 08.12. 16:00 76% 45 km
So, 08.12. 15:30 76% >10 km
So, 08.12. 15:00 67% 45 km
So, 08.12. 14:30 62% >10 km
So, 08.12. 14:00 66% 45 km
So, 08.12. 13:30 62% >10 km
So, 08.12. 13:00 63% 45 km
So, 08.12. 12:30 66% >10 km
Ortszeit Niederschlagsmenge Niederschlagsart
So, 08.12. 13:00 0.0 l/m2 in 6 Std. -
So, 08.12. 7:00 0.0 l/m2 in 12 Std. -
So, 08.12. 1:00 0.0 l/m2 in 6 Std. -
Sa, 07.12. 19:00 1 l/m2 in 12 Std. Schauer
Sa, 07.12. 13:00 1 l/m2 in 6 Std. Schnee
Sa, 07.12. 7:00 0.6 l/m2 in 12 Std. Schnee, Nebel
Sa, 07.12. 1:00 0.0 l/m2 in 6 Std. -
Fr, 06.12. 19:00 0.0 l/m2 in 12 Std. -
Ortszeit Niederschlagsmenge Niederschlagsart
So, 08.12. 16:00 0.0 l/m2 in 1 Std. -
So, 08.12. 15:30 keine Meldung -
So, 08.12. 15:00 0.0 l/m2 in 1 Std. -
So, 08.12. 14:30 keine Meldung -
So, 08.12. 14:00 0.0 l/m2 in 1 Std. -
So, 08.12. 13:30 keine Meldung -
So, 08.12. 13:00 0.0 l/m2 in 1 Std. -
So, 08.12. 12:30 keine Meldung -
Ortszeit Stärke Spitze Richtung
km/h Bft. km/h Grad Sektor
So, 08.12. 13:00 25 4 - 200° S
So, 08.12. 7:00 4 1 - 200° S
So, 08.12. 1:00 7 2 - 10° N
Sa, 07.12. 19:00 7 2 - 70° O
Sa, 07.12. 13:00 4 1 - 240° SW
Sa, 07.12. 7:00 14 3 - 180° S
Sa, 07.12. 1:00 18 3 - 180° S
Fr, 06.12. 19:00 14 3 - 170° S
Ortszeit Stärke Spitze Richtung
km/h Bft. km/h Grad Sektor
So, 08.12. 16:00 14 3 - 160° S
So, 08.12. 15:30 15 3 - 160° S
So, 08.12. 15:00 18 3 - 170° S
So, 08.12. 14:30 17 3 - 180° S
So, 08.12. 14:00 18 3 - 180° S
So, 08.12. 13:30 24 4 - 190° S
So, 08.12. 13:00 25 4 - 200° S
So, 08.12. 12:30 20 4 - 200° S
Ortszeit Untergrenze Bedeckung Gattung
total tief tief mittel hoch
So, 08.12. 13:00 780 m 4/8 1/8 Cu Ac Ci
So, 08.12. 7:00 1440 m 7/8 7/8 Sc - -
So, 08.12. 1:00 6000 m 7/8 0/8 - - Cs
Sa, 07.12. 19:00 2400 m 6/8 6/8 - Ac -
Sa, 07.12. 13:00 150 m 8/8 8/8 St - -
Sa, 07.12. 7:00 60 m 8/8 8/8 St - -
Sa, 07.12. 1:00 90 m 8/8 8/8 St - -
Fr, 06.12. 19:00 210 m 8/8 8/8 St - -
Ortszeit Bedeckungsgrad in Achtel und Wolkenuntergrenze
So, 08.12. 16:00 6(7200m)
So, 08.12. 15:30 keine Wolken(unter 1500 m)
So, 08.12. 15:00 6(7500m)
So, 08.12. 14:30 keine Wolken(unter 1500 m)
So, 08.12. 14:00 1(3000m) 6(7500m)
So, 08.12. 13:30 1-2(780m)
So, 08.12. 13:00 1(780m) 3(6000m)
So, 08.12. 12:30 1-2(780m)
Ortszeit Luftdruck NN (hPa) Tendenz (hPa in 3 Std.)
So, 08.12. 13:00 1012 - 3,2
So, 08.12. 7:00 1017 - 0,5
So, 08.12. 1:00 1018 + 0,2
Sa, 07.12. 19:00 1018 + 0,9
Sa, 07.12. 13:00 1016 - 0,8
Sa, 07.12. 7:00 1016 - 0,5
Sa, 07.12. 1:00 1019 - 1,6
Fr, 06.12. 19:00 1021 - 0,4
Ortszeit Luftdruck NN (hPa) Tendenz (hPa in 3 Std.)
So, 08.12. 16:00 1010 - 2,4
So, 08.12. 15:30 1009 keine Meldung
So, 08.12. 15:00 1010 - 3,0
So, 08.12. 14:30 1010 keine Meldung
So, 08.12. 14:00 1011 - 3,4
So, 08.12. 13:30 1011 keine Meldung
So, 08.12. 13:00 1012 - 3,2
So, 08.12. 12:30 1012 keine Meldung
Ortszeit Schneehöhe (cm)
So, 08.12. 13:00 -
So, 08.12. 7:00 0
So, 08.12. 1:00 -
Sa, 07.12. 19:00 -
Sa, 07.12. 13:00 -
Sa, 07.12. 7:00 0
Sa, 07.12. 1:00 -
Fr, 06.12. 19:00 -
Ortszeit Schneehöhe (cm)
So, 08.12. 16:00 -
So, 08.12. 15:30 -
So, 08.12. 15:00 -
So, 08.12. 14:30 -
So, 08.12. 14:00 -
So, 08.12. 13:30 -
So, 08.12. 13:00 -
So, 08.12. 12:30 -
Link zu dieser Seite / Seite empfehlen

Das Wetter in ...